Victoria, Mississippi
Current Conditions -  °F | °C
As of 3:35 AM on Friday 19 Dec 2014 (Local Time) from KOLV Reporting Station
Overcast Overcast  
Wind Chill: 36°   Ceiling: 3800
Heat Index: 39°   Visibility: 8mi
Dew Point: 39°   Wind: 5mph
Humidity: 100%   Direction: 10°N
Pressure: 30.21"   Gusts: NA
Location:  34.85°N, 89.62°W
Report Text: KOLV 190935Z AUTO 01004KT 8SM OVC038 04/04 A3021 RMK A01 P000
Loading
Personal Weather Stations






























Interactive Weather Map New forecast layout! Learn more

10-Day Weather Forecast

Advertisements
Track Severe Weather on mobile